sensor_id;sensor_type;location;lat;lon;timestamp;P1;durP1;ratioP1;P2;durP2;ratioP2
5819;SDS011;2936;47.348;9.640;2022-12-10T00:02:16;35.15;;;22.63;;
5819;SDS011;2936;47.348;9.640;2022-12-10T00:04:43;35.17;;;22.48;;
5819;SDS011;2936;47.348;9.640;2022-12-10T00:07:10;42.08;;;21.95;;
5819;SDS011;2936;47.348;9.640;2022-12-10T00:09:38;40.28;;;24.98;;
5819;SDS011;2936;47.348;9.640;2022-12-10T00:12:06;35.38;;;21.75;;
5819;SDS011;2936;47.348;9.640;2022-12-10T00:14:34;36.60;;;22.42;;
5819;SDS011;2936;47.348;9.640;2022-12-10T00:17:01;37.30;;;22.92;;
5819;SDS011;2936;47.348;9.640;2022-12-10T00:19:28;37.58;;;22.40;;
5819;SDS011;2936;47.348;9.640;2022-12-10T00:21:56;38.72;;;22.85;;
5819;SDS011;2936;47.348;9.640;2022-12-10T00:24:23;39.47;;;24.30;;
5819;SDS011;2936;47.348;9.640;2022-12-10T00:26:50;48.83;;;22.38;;
5819;SDS011;2936;47.348;9.640;2022-12-10T00:29:19;36.17;;;21.95;;
5819;SDS011;2936;47.348;9.640;2022-12-10T00:31:46;38.05;;;22.20;;
5819;SDS011;2936;47.348;9.640;2022-12-10T00:34:13;35.00;;;22.85;;
5819;SDS011;2936;47.348;9.640;2022-12-10T00:36:42;34.88;;;22.08;;
5819;SDS011;2936;47.348;9.640;2022-12-10T00:39:10;35.25;;;22.35;;
5819;SDS011;2936;47.348;9.640;2022-12-10T00:41:38;36.30;;;22.88;;
5819;SDS011;2936;47.348;9.640;2022-12-10T00:44:05;44.97;;;22.95;;
5819;SDS011;2936;47.348;9.640;2022-12-10T00:46:34;41.75;;;23.48;;
5819;SDS011;2936;47.348;9.640;2022-12-10T00:49:01;35.28;;;23.02;;
5819;SDS011;2936;47.348;9.640;2022-12-10T00:51:29;43.83;;;24.38;;
5819;SDS011;2936;47.348;9.640;2022-12-10T00:53:57;40.97;;;22.85;;
5819;SDS011;2936;47.348;9.640;2022-12-10T00:56:25;38.47;;;23.50;;
5819;SDS011;2936;47.348;9.640;2022-12-10T00:58:53;41.05;;;22.67;;
5819;SDS011;2936;47.348;9.640;2022-12-10T01:01:21;34.05;;;21.98;;
5819;SDS011;2936;47.348;9.640;2022-12-10T01:03:51;40.33;;;23.15;;
5819;SDS011;2936;47.348;9.640;2022-12-10T01:06:20;37.95;;;22.17;;
5819;SDS011;2936;47.348;9.640;2022-12-10T01:08:47;39.75;;;23.13;;
5819;SDS011;2936;47.348;9.640;2022-12-10T01:11:16;30.05;;;21.52;;
5819;SDS011;2936;47.348;9.640;2022-12-10T01:13:44;35.30;;;22.08;;
5819;SDS011;2936;47.348;9.640;2022-12-10T01:16:11;34.22;;;22.23;;
5819;SDS011;2936;47.348;9.640;2022-12-10T01:18:39;34.17;;;22.25;;
5819;SDS011;2936;47.348;9.640;2022-12-10T01:21:09;30.90;;;20.70;;
5819;SDS011;2936;47.348;9.640;2022-12-10T01:23:37;39.75;;;21.83;;
5819;SDS011;2936;47.348;9.640;2022-12-10T01:26:05;40.28;;;22.63;;
5819;SDS011;2936;47.348;9.640;2022-12-10T01:28:33;41.15;;;22.88;;
5819;SDS011;2936;47.348;9.640;2022-12-10T01:31:01;38.75;;;21.80;;
5819;SDS011;2936;47.348;9.640;2022-12-10T01:33:29;34.78;;;21.75;;
5819;SDS011;2936;47.348;9.640;2022-12-10T01:35:56;39.55;;;22.63;;
5819;SDS011;2936;47.348;9.640;2022-12-10T01:38:25;32.00;;;20.95;;
5819;SDS011;2936;47.348;9.640;2022-12-10T01:40:53;32.90;;;21.95;;
5819;SDS011;2936;47.348;9.640;2022-12-10T01:43:20;36.08;;;21.83;;
5819;SDS011;2936;47.348;9.640;2022-12-10T01:45:47;32.97;;;20.73;;
5819;SDS011;2936;47.348;9.640;2022-12-10T01:48:16;35.58;;;23.30;;
5819;SDS011;2936;47.348;9.640;2022-12-10T01:50:43;30.42;;;19.70;;
5819;SDS011;2936;47.348;9.640;2022-12-10T01:53:11;32.47;;;20.63;;
5819;SDS011;2936;47.348;9.640;2022-12-10T01:55:41;40.75;;;22.30;;
5819;SDS011;2936;47.348;9.640;2022-12-10T01:58:09;36.97;;;21.83;;
5819;SDS011;2936;47.348;9.640;2022-12-10T02:00:37;38.03;;;22.20;;
5819;SDS011;2936;47.348;9.640;2022-12-10T02:03:07;38.33;;;21.50;;
5819;SDS011;2936;47.348;9.640;2022-12-10T02:05:38;35.38;;;22.48;;
5819;SDS011;2936;47.348;9.640;2022-12-10T02:08:08;38.83;;;21.15;;
5819;SDS011;2936;47.348;9.640;2022-12-10T02:10:42;32.15;;;21.60;;
5819;SDS011;2936;47.348;9.640;2022-12-10T02:13:11;41.50;;;22.95;;
5819;SDS011;2936;47.348;9.640;2022-12-10T02:15:41;41.72;;;21.90;;
5819;SDS011;2936;47.348;9.640;2022-12-10T02:18:10;37.50;;;23.05;;
5819;SDS011;2936;47.348;9.640;2022-12-10T02:20:40;38.67;;;21.25;;
5819;SDS011;2936;47.348;9.640;2022-12-10T02:23:08;30.48;;;20.35;;
5819;SDS011;2936;47.348;9.640;2022-12-10T02:25:37;39.15;;;22.15;;
5819;SDS011;2936;47.348;9.640;2022-12-10T02:28:09;46.78;;;23.38;;
5819;SDS011;2936;47.348;9.640;2022-12-10T02:30:40;37.47;;;21.25;;
5819;SDS011;2936;47.348;9.640;2022-12-10T02:33:08;36.05;;;21.80;;
5819;SDS011;2936;47.348;9.640;2022-12-10T02:35:36;36.90;;;23.05;;
5819;SDS011;2936;47.348;9.640;2022-12-10T02:38:07;37.45;;;23.30;;
5819;SDS011;2936;47.348;9.640;2022-12-10T02:40:34;42.53;;;22.75;;
5819;SDS011;2936;47.348;9.640;2022-12-10T02:43:05;37.65;;;23.38;;
5819;SDS011;2936;47.348;9.640;2022-12-10T02:45:33;39.92;;;22.83;;
5819;SDS011;2936;47.348;9.640;2022-12-10T02:48:02;34.75;;;20.88;;
5819;SDS011;2936;47.348;9.640;2022-12-10T02:50:31;32.38;;;21.65;;
5819;SDS011;2936;47.348;9.640;2022-12-10T02:52:58;40.75;;;23.58;;
5819;SDS011;2936;47.348;9.640;2022-12-10T02:55:26;37.72;;;21.70;;
5819;SDS011;2936;47.348;9.640;2022-12-10T02:57:57;41.88;;;22.48;;
5819;SDS011;2936;47.348;9.640;2022-12-10T03:00:30;41.97;;;23.77;;
5819;SDS011;2936;47.348;9.640;2022-12-10T03:05:42;36.22;;;21.40;;
5819;SDS011;2936;47.348;9.640;2022-12-10T03:08:13;37.42;;;22.05;;
5819;SDS011;2936;47.348;9.640;2022-12-10T03:10:42;34.63;;;21.70;;
5819;SDS011;2936;47.348;9.640;2022-12-10T03:13:13;35.53;;;21.38;;
5819;SDS011;2936;47.348;9.640;2022-12-10T03:15:41;39.05;;;22.55;;
5819;SDS011;2936;47.348;9.640;2022-12-10T03:18:10;40.95;;;23.50;;
5819;SDS011;2936;47.348;9.640;2022-12-10T03:20:39;43.75;;;24.92;;
5819;SDS011;2936;47.348;9.640;2022-12-10T03:23:10;39.50;;;22.15;;
5819;SDS011;2936;47.348;9.640;2022-12-10T03:25:39;40.90;;;22.65;;
5819;SDS011;2936;47.348;9.640;2022-12-10T03:28:06;36.42;;;22.02;;
5819;SDS011;2936;47.348;9.640;2022-12-10T03:30:35;35.50;;;22.92;;
5819;SDS011;2936;47.348;9.640;2022-12-10T03:33:03;32.03;;;21.13;;
5819;SDS011;2936;47.348;9.640;2022-12-10T03:35:31;37.35;;;21.95;;
5819;SDS011;2936;47.348;9.640;2022-12-10T03:37:59;36.20;;;22.52;;
5819;SDS011;2936;47.348;9.640;2022-12-10T03:40:28;35.88;;;22.23;;
5819;SDS011;2936;47.348;9.640;2022-12-10T03:43:11;38.97;;;22.40;;
5819;SDS011;2936;47.348;9.640;2022-12-10T03:45:39;39.72;;;23.83;;
5819;SDS011;2936;47.348;9.640;2022-12-10T03:48:06;36.28;;;22.63;;
5819;SDS011;2936;47.348;9.640;2022-12-10T03:50:33;45.17;;;24.55;;
5819;SDS011;2936;47.348;9.640;2022-12-10T03:53:01;38.00;;;23.73;;
5819;SDS011;2936;47.348;9.640;2022-12-10T03:55:29;41.40;;;23.40;;
5819;SDS011;2936;47.348;9.640;2022-12-10T03:57:57;43.17;;;23.88;;
5819;SDS011;2936;47.348;9.640;2022-12-10T04:00:25;42.28;;;24.90;;
5819;SDS011;2936;47.348;9.640;2022-12-10T04:02:52;43.42;;;22.13;;
5819;SDS011;2936;47.348;9.640;2022-12-10T04:05:19;34.47;;;22.67;;
5819;SDS011;2936;47.348;9.640;2022-12-10T04:07:47;41.88;;;22.85;;
5819;SDS011;2936;47.348;9.640;2022-12-10T04:10:14;39.92;;;22.13;;
5819;SDS011;2936;47.348;9.640;2022-12-10T04:12:43;44.92;;;22.70;;
5819;SDS011;2936;47.348;9.640;2022-12-10T04:15:30;37.78;;;22.35;;
5819;SDS011;2936;47.348;9.640;2022-12-10T04:18:15;41.80;;;22.30;;
5819;SDS011;2936;47.348;9.640;2022-12-10T04:20:42;37.88;;;22.05;;
5819;SDS011;2936;47.348;9.640;2022-12-10T04:23:27;54.47;;;23.42;;
5819;SDS011;2936;47.348;9.640;2022-12-10T04:26:12;35.80;;;21.95;;
5819;SDS011;2936;47.348;9.640;2022-12-10T04:28:58;38.90;;;23.30;;
5819;SDS011;2936;47.348;9.640;2022-12-10T04:31:25;43.10;;;22.85;;
5819;SDS011;2936;47.348;9.640;2022-12-10T04:33:53;41.35;;;23.85;;
5819;SDS011;2936;47.348;9.640;2022-12-10T04:36:20;40.13;;;23.95;;
5819;SDS011;2936;47.348;9.640;2022-12-10T04:38:47;41.05;;;23.65;;
5819;SDS011;2936;47.348;9.640;2022-12-10T04:41:14;38.55;;;22.85;;
5819;SDS011;2936;47.348;9.640;2022-12-10T04:43:42;37.70;;;23.02;;
5819;SDS011;2936;47.348;9.640;2022-12-10T04:46:10;40.00;;;23.70;;
5819;SDS011;2936;47.348;9.640;2022-12-10T04:48:38;38.58;;;23.40;;
5819;SDS011;2936;47.348;9.640;2022-12-10T04:51:05;45.60;;;24.65;;
5819;SDS011;2936;47.348;9.640;2022-12-10T04:53:32;37.75;;;24.35;;
5819;SDS011;2936;47.348;9.640;2022-12-10T04:56:00;41.20;;;24.67;;
5819;SDS011;2936;47.348;9.640;2022-12-10T04:58:30;38.72;;;23.10;;
5819;SDS011;2936;47.348;9.640;2022-12-10T05:01:00;37.58;;;23.33;;
5819;SDS011;2936;47.348;9.640;2022-12-10T05:03:29;37.53;;;23.00;;
5819;SDS011;2936;47.348;9.640;2022-12-10T05:06:00;47.22;;;24.77;;
5819;SDS011;2936;47.348;9.640;2022-12-10T05:08:27;42.58;;;23.05;;
5819;SDS011;2936;47.348;9.640;2022-12-10T05:10:55;43.67;;;23.52;;
5819;SDS011;2936;47.348;9.640;2022-12-10T05:13:22;49.28;;;25.60;;
5819;SDS011;2936;47.348;9.640;2022-12-10T05:15:49;42.90;;;23.95;;
5819;SDS011;2936;47.348;9.640;2022-12-10T05:18:16;46.65;;;23.42;;
5819;SDS011;2936;47.348;9.640;2022-12-10T05:20:45;39.65;;;22.80;;
5819;SDS011;2936;47.348;9.640;2022-12-10T05:23:12;53.55;;;24.20;;
5819;SDS011;2936;47.348;9.640;2022-12-10T05:26:00;43.45;;;23.17;;
5819;SDS011;2936;47.348;9.640;2022-12-10T05:28:28;48.90;;;24.33;;
5819;SDS011;2936;47.348;9.640;2022-12-10T05:30:56;42.00;;;22.20;;
5819;SDS011;2936;47.348;9.640;2022-12-10T05:33:23;39.63;;;22.77;;
5819;SDS011;2936;47.348;9.640;2022-12-10T05:35:52;38.30;;;22.55;;
5819;SDS011;2936;47.348;9.640;2022-12-10T05:38:20;43.95;;;22.25;;
5819;SDS011;2936;47.348;9.640;2022-12-10T05:40:47;36.85;;;21.75;;
5819;SDS011;2936;47.348;9.640;2022-12-10T05:43:15;37.88;;;22.48;;
5819;SDS011;2936;47.348;9.640;2022-12-10T05:45:42;44.85;;;22.05;;
5819;SDS011;2936;47.348;9.640;2022-12-10T05:48:09;38.30;;;22.10;;
5819;SDS011;2936;47.348;9.640;2022-12-10T05:50:37;41.35;;;22.17;;
5819;SDS011;2936;47.348;9.640;2022-12-10T05:53:05;44.72;;;21.52;;
5819;SDS011;2936;47.348;9.640;2022-12-10T05:55:34;43.30;;;22.17;;
5819;SDS011;2936;47.348;9.640;2022-12-10T05:58:01;38.95;;;21.88;;
5819;SDS011;2936;47.348;9.640;2022-12-10T06:00:29;33.17;;;20.55;;
5819;SDS011;2936;47.348;9.640;2022-12-10T06:02:56;40.03;;;21.48;;
5819;SDS011;2936;47.348;9.640;2022-12-10T06:05:23;38.10;;;21.65;;
5819;SDS011;2936;47.348;9.640;2022-12-10T06:07:51;45.45;;;21.40;;
5819;SDS011;2936;47.348;9.640;2022-12-10T06:10:20;33.08;;;20.10;;
5819;SDS011;2936;47.348;9.640;2022-12-10T06:12:47;33.17;;;20.90;;
5819;SDS011;2936;47.348;9.640;2022-12-10T06:15:14;34.78;;;20.90;;
5819;SDS011;2936;47.348;9.640;2022-12-10T06:17:42;46.60;;;22.27;;
5819;SDS011;2936;47.348;9.640;2022-12-10T06:20:10;34.63;;;21.55;;
5819;SDS011;2936;47.348;9.640;2022-12-10T06:22:37;38.08;;;22.85;;
5819;SDS011;2936;47.348;9.640;2022-12-10T06:25:05;36.67;;;21.48;;
5819;SDS011;2936;47.348;9.640;2022-12-10T06:27:34;37.25;;;22.92;;
5819;SDS011;2936;47.348;9.640;2022-12-10T06:30:01;41.83;;;23.17;;
5819;SDS011;2936;47.348;9.640;2022-12-10T06:32:28;41.10;;;23.83;;
5819;SDS011;2936;47.348;9.640;2022-12-10T06:34:56;35.13;;;23.42;;
5819;SDS011;2936;47.348;9.640;2022-12-10T06:37:23;37.28;;;22.35;;
5819;SDS011;2936;47.348;9.640;2022-12-10T06:39:50;36.50;;;23.38;;
5819;SDS011;2936;47.348;9.640;2022-12-10T06:42:18;41.47;;;25.13;;
5819;SDS011;2936;47.348;9.640;2022-12-10T06:44:47;53.55;;;23.58;;
5819;SDS011;2936;47.348;9.640;2022-12-10T06:47:14;43.63;;;25.48;;
5819;SDS011;2936;47.348;9.640;2022-12-10T06:49:41;40.65;;;25.95;;
5819;SDS011;2936;47.348;9.640;2022-12-10T06:52:09;42.58;;;23.83;;
5819;SDS011;2936;47.348;9.640;2022-12-10T06:54:36;36.75;;;23.70;;
5819;SDS011;2936;47.348;9.640;2022-12-10T06:57:04;42.60;;;24.58;;
5819;SDS011;2936;47.348;9.640;2022-12-10T06:59:31;48.35;;;26.77;;
5819;SDS011;2936;47.348;9.640;2022-12-10T07:01:59;52.17;;;26.33;;
5819;SDS011;2936;47.348;9.640;2022-12-10T07:04:27;47.97;;;27.42;;
5819;SDS011;2936;47.348;9.640;2022-12-10T07:06:54;44.75;;;24.77;;
5819;SDS011;2936;47.348;9.640;2022-12-10T07:09:21;38.15;;;25.05;;
5819;SDS011;2936;47.348;9.640;2022-12-10T07:11:50;42.72;;;23.30;;
5819;SDS011;2936;47.348;9.640;2022-12-10T07:14:17;33.40;;;22.23;;
5819;SDS011;2936;47.348;9.640;2022-12-10T07:16:45;38.55;;;22.90;;
5819;SDS011;2936;47.348;9.640;2022-12-10T07:19:13;38.42;;;24.23;;
5819;SDS011;2936;47.348;9.640;2022-12-10T07:21:41;45.58;;;24.75;;
5819;SDS011;2936;47.348;9.640;2022-12-10T07:24:09;38.45;;;24.65;;
5819;SDS011;2936;47.348;9.640;2022-12-10T07:26:38;39.83;;;24.52;;
5819;SDS011;2936;47.348;9.640;2022-12-10T07:29:06;34.78;;;22.55;;
5819;SDS011;2936;47.348;9.640;2022-12-10T07:31:35;36.90;;;22.73;;
5819;SDS011;2936;47.348;9.640;2022-12-10T07:34:02;40.10;;;23.90;;
5819;SDS011;2936;47.348;9.640;2022-12-10T07:36:31;37.58;;;21.38;;
5819;SDS011;2936;47.348;9.640;2022-12-10T07:38:58;32.38;;;21.88;;
5819;SDS011;2936;47.348;9.640;2022-12-10T07:41:26;36.17;;;23.25;;
5819;SDS011;2936;47.348;9.640;2022-12-10T07:43:54;35.80;;;22.83;;
5819;SDS011;2936;47.348;9.640;2022-12-10T07:46:22;40.53;;;22.92;;
5819;SDS011;2936;47.348;9.640;2022-12-10T07:48:50;42.15;;;24.55;;
5819;SDS011;2936;47.348;9.640;2022-12-10T07:51:18;44.63;;;25.90;;
5819;SDS011;2936;47.348;9.640;2022-12-10T07:53:47;38.67;;;23.90;;
5819;SDS011;2936;47.348;9.640;2022-12-10T07:56:15;44.17;;;25.15;;
5819;SDS011;2936;47.348;9.640;2022-12-10T07:58:44;40.45;;;24.63;;
5819;SDS011;2936;47.348;9.640;2022-12-10T08:01:12;41.90;;;24.27;;
5819;SDS011;2936;47.348;9.640;2022-12-10T08:03:40;45.85;;;26.30;;
5819;SDS011;2936;47.348;9.640;2022-12-10T08:06:08;42.08;;;25.10;;
5819;SDS011;2936;47.348;9.640;2022-12-10T08:08:36;42.00;;;24.65;;
5819;SDS011;2936;47.348;9.640;2022-12-10T08:11:06;49.20;;;25.17;;
5819;SDS011;2936;47.348;9.640;2022-12-10T08:13:33;41.88;;;24.30;;
5819;SDS011;2936;47.348;9.640;2022-12-10T08:16:01;51.03;;;25.50;;
5819;SDS011;2936;47.348;9.640;2022-12-10T08:18:29;50.85;;;25.67;;
5819;SDS011;2936;47.348;9.640;2022-12-10T08:20:57;49.83;;;26.58;;
5819;SDS011;2936;47.348;9.640;2022-12-10T08:23:24;47.63;;;27.50;;
5819;SDS011;2936;47.348;9.640;2022-12-10T08:25:51;54.90;;;27.17;;
5819;SDS011;2936;47.348;9.640;2022-12-10T08:28:20;44.67;;;25.98;;
5819;SDS011;2936;47.348;9.640;2022-12-10T08:30:47;54.30;;;28.40;;
5819;SDS011;2936;47.348;9.640;2022-12-10T08:33:15;50.08;;;25.70;;
5819;SDS011;2936;47.348;9.640;2022-12-10T08:35:42;50.17;;;27.30;;
5819;SDS011;2936;47.348;9.640;2022-12-10T08:38:09;43.67;;;25.23;;
5819;SDS011;2936;47.348;9.640;2022-12-10T08:40:38;53.85;;;27.23;;
5819;SDS011;2936;47.348;9.640;2022-12-10T08:43:06;50.75;;;26.52;;
5819;SDS011;2936;47.348;9.640;2022-12-10T08:45:36;46.28;;;27.85;;
5819;SDS011;2936;47.348;9.640;2022-12-10T08:48:03;43.80;;;25.20;;
5819;SDS011;2936;47.348;9.640;2022-12-10T08:50:31;53.00;;;27.08;;
5819;SDS011;2936;47.348;9.640;2022-12-10T08:52:58;59.00;;;27.52;;
5819;SDS011;2936;47.348;9.640;2022-12-10T08:55:26;60.72;;;30.45;;
5819;SDS011;2936;47.348;9.640;2022-12-10T08:57:53;49.78;;;28.42;;
5819;SDS011;2936;47.348;9.640;2022-12-10T09:00:21;48.60;;;26.17;;
5819;SDS011;2936;47.348;9.640;2022-12-10T09:02:49;50.95;;;27.35;;
5819;SDS011;2936;47.348;9.640;2022-12-10T09:05:17;50.25;;;26.88;;
5819;SDS011;2936;47.348;9.640;2022-12-10T09:07:44;55.88;;;28.65;;
5819;SDS011;2936;47.348;9.640;2022-12-10T09:10:11;56.95;;;28.27;;
5819;SDS011;2936;47.348;9.640;2022-12-10T09:12:39;51.30;;;26.77;;
5819;SDS011;2936;47.348;9.640;2022-12-10T09:15:07;46.38;;;26.50;;
5819;SDS011;2936;47.348;9.640;2022-12-10T09:17:35;50.47;;;26.95;;
5819;SDS011;2936;47.348;9.640;2022-12-10T09:20:05;47.65;;;26.95;;
5819;SDS011;2936;47.348;9.640;2022-12-10T09:22:32;54.75;;;27.10;;
5819;SDS011;2936;47.348;9.640;2022-12-10T09:25:03;48.67;;;27.80;;
5819;SDS011;2936;47.348;9.640;2022-12-10T09:27:31;57.08;;;27.08;;
5819;SDS011;2936;47.348;9.640;2022-12-10T09:29:59;60.78;;;27.30;;
5819;SDS011;2936;47.348;9.640;2022-12-10T09:32:26;52.25;;;28.20;;
5819;SDS011;2936;47.348;9.640;2022-12-10T09:34:53;59.25;;;28.77;;
5819;SDS011;2936;47.348;9.640;2022-12-10T09:37:22;55.42;;;29.10;;
5819;SDS011;2936;47.348;9.640;2022-12-10T09:39:49;53.13;;;27.85;;
5819;SDS011;2936;47.348;9.640;2022-12-10T09:42:18;53.00;;;27.17;;
5819;SDS011;2936;47.348;9.640;2022-12-10T09:44:52;56.22;;;28.55;;
5819;SDS011;2936;47.348;9.640;2022-12-10T09:47:22;51.20;;;27.42;;
5819;SDS011;2936;47.348;9.640;2022-12-10T09:49:55;55.10;;;28.25;;
5819;SDS011;2936;47.348;9.640;2022-12-10T09:52:29;56.35;;;30.20;;
5819;SDS011;2936;47.348;9.640;2022-12-10T09:54:59;51.63;;;27.88;;
5819;SDS011;2936;47.348;9.640;2022-12-10T09:57:28;57.38;;;30.13;;
5819;SDS011;2936;47.348;9.640;2022-12-10T09:59:57;53.50;;;27.75;;
5819;SDS011;2936;47.348;9.640;2022-12-10T10:02:28;66.00;;;30.67;;
5819;SDS011;2936;47.348;9.640;2022-12-10T10:05:08;54.33;;;28.58;;
5819;SDS011;2936;47.348;9.640;2022-12-10T10:07:38;52.40;;;28.10;;
5819;SDS011;2936;47.348;9.640;2022-12-10T10:10:16;66.53;;;31.30;;
5819;SDS011;2936;47.348;9.640;2022-12-10T10:12:46;54.67;;;28.42;;
5819;SDS011;2936;47.348;9.640;2022-12-10T10:15:23;53.10;;;26.95;;
5819;SDS011;2936;47.348;9.640;2022-12-10T10:17:51;54.75;;;27.25;;
5819;SDS011;2936;47.348;9.640;2022-12-10T10:20:19;51.22;;;26.73;;
5819;SDS011;2936;47.348;9.640;2022-12-10T10:22:48;52.40;;;26.40;;
5819;SDS011;2936;47.348;9.640;2022-12-10T10:25:16;62.80;;;27.88;;
5819;SDS011;2936;47.348;9.640;2022-12-10T10:27:44;52.40;;;27.15;;
5819;SDS011;2936;47.348;9.640;2022-12-10T10:30:13;50.95;;;27.23;;
5819;SDS011;2936;47.348;9.640;2022-12-10T10:32:46;54.97;;;28.23;;
5819;SDS011;2936;47.348;9.640;2022-12-10T10:35:19;46.25;;;24.70;;
5819;SDS011;2936;47.348;9.640;2022-12-10T10:37:48;49.47;;;26.63;;
5819;SDS011;2936;47.348;9.640;2022-12-10T10:40:21;46.72;;;25.45;;
5819;SDS011;2936;47.348;9.640;2022-12-10T10:42:51;53.08;;;26.23;;
5819;SDS011;2936;47.348;9.640;2022-12-10T10:45:32;48.70;;;25.95;;
5819;SDS011;2936;47.348;9.640;2022-12-10T10:48:07;52.78;;;26.92;;
5819;SDS011;2936;47.348;9.640;2022-12-10T10:50:37;54.58;;;26.92;;
5819;SDS011;2936;47.348;9.640;2022-12-10T10:55:48;62.88;;;28.83;;
5819;SDS011;2936;47.348;9.640;2022-12-10T10:58:17;57.03;;;27.52;;
5819;SDS011;2936;47.348;9.640;2022-12-10T11:00:52;47.25;;;26.67;;
5819;SDS011;2936;47.348;9.640;2022-12-10T11:03:20;51.45;;;25.63;;
5819;SDS011;2936;47.348;9.640;2022-12-10T11:05:47;48.63;;;25.60;;
5819;SDS011;2936;47.348;9.640;2022-12-10T11:08:16;45.60;;;24.67;;
5819;SDS011;2936;47.348;9.640;2022-12-10T11:10:50;51.85;;;24.25;;
5819;SDS011;2936;47.348;9.640;2022-12-10T11:13:19;47.83;;;24.42;;
5819;SDS011;2936;47.348;9.640;2022-12-10T11:15:47;48.85;;;25.33;;
5819;SDS011;2936;47.348;9.640;2022-12-10T11:18:25;45.90;;;24.77;;
5819;SDS011;2936;47.348;9.640;2022-12-10T11:20:56;41.10;;;24.05;;
5819;SDS011;2936;47.348;9.640;2022-12-10T11:23:26;46.65;;;23.77;;
5819;SDS011;2936;47.348;9.640;2022-12-10T11:25:57;40.03;;;23.40;;
5819;SDS011;2936;47.348;9.640;2022-12-10T11:28:31;43.50;;;22.58;;
5819;SDS011;2936;47.348;9.640;2022-12-10T11:31:08;42.05;;;22.73;;
5819;SDS011;2936;47.348;9.640;2022-12-10T11:33:40;42.05;;;22.70;;
5819;SDS011;2936;47.348;9.640;2022-12-10T11:36:16;41.08;;;23.77;;
5819;SDS011;2936;47.348;9.640;2022-12-10T11:38:47;36.33;;;20.92;;
5819;SDS011;2936;47.348;9.640;2022-12-10T11:41:23;44.08;;;22.10;;
5819;SDS011;2936;47.348;9.640;2022-12-10T11:43:54;40.45;;;24.15;;
5819;SDS011;2936;47.348;9.640;2022-12-10T11:46:35;44.88;;;25.60;;
5819;SDS011;2936;47.348;9.640;2022-12-10T11:49:09;40.33;;;23.48;;
5819;SDS011;2936;47.348;9.640;2022-12-10T11:51:42;48.15;;;24.88;;
5819;SDS011;2936;47.348;9.640;2022-12-10T11:54:15;54.80;;;26.20;;
5819;SDS011;2936;47.348;9.640;2022-12-10T11:56:52;46.63;;;25.80;;
5819;SDS011;2936;47.348;9.640;2022-12-10T11:59:23;41.97;;;25.15;;
5819;SDS011;2936;47.348;9.640;2022-12-10T12:04:43;50.00;;;26.80;;
5819;SDS011;2936;47.348;9.640;2022-12-10T12:07:17;53.28;;;27.88;;
5819;SDS011;2936;47.348;9.640;2022-12-10T12:09:52;51.05;;;27.02;;
5819;SDS011;2936;47.348;9.640;2022-12-10T12:12:26;59.30;;;28.23;;
5819;SDS011;2936;47.348;9.640;2022-12-10T12:14:58;59.10;;;28.48;;
5819;SDS011;2936;47.348;9.640;2022-12-10T12:17:27;59.55;;;31.20;;
5819;SDS011;2936;47.348;9.640;2022-12-10T12:19:58;64.88;;;29.80;;
5819;SDS011;2936;47.348;9.640;2022-12-10T12:22:26;54.80;;;28.95;;
5819;SDS011;2936;47.348;9.640;2022-12-10T12:24:54;66.20;;;30.92;;
5819;SDS011;2936;47.348;9.640;2022-12-10T12:27:27;64.13;;;31.33;;
5819;SDS011;2936;47.348;9.640;2022-12-10T12:29:58;59.83;;;30.88;;
5819;SDS011;2936;47.348;9.640;2022-12-10T12:32:29;53.65;;;27.55;;
5819;SDS011;2936;47.348;9.640;2022-12-10T12:34:59;54.22;;;29.55;;
5819;SDS011;2936;47.348;9.640;2022-12-10T12:37:29;59.70;;;31.00;;
5819;SDS011;2936;47.348;9.640;2022-12-10T12:40:00;59.55;;;31.10;;
5819;SDS011;2936;47.348;9.640;2022-12-10T12:42:31;58.28;;;29.95;;
5819;SDS011;2936;47.348;9.640;2022-12-10T12:45:03;59.15;;;31.17;;
5819;SDS011;2936;47.348;9.640;2022-12-10T12:47:38;61.80;;;31.35;;
5819;SDS011;2936;47.348;9.640;2022-12-10T12:50:11;59.17;;;31.65;;
5819;SDS011;2936;47.348;9.640;2022-12-10T12:52:47;57.15;;;28.88;;
5819;SDS011;2936;47.348;9.640;2022-12-10T12:55:16;55.30;;;29.23;;
5819;SDS011;2936;47.348;9.640;2022-12-10T12:57:46;61.35;;;31.58;;
5819;SDS011;2936;47.348;9.640;2022-12-10T13:00:17;58.30;;;31.13;;
5819;SDS011;2936;47.348;9.640;2022-12-10T13:02:58;66.90;;;32.38;;
5819;SDS011;2936;47.348;9.640;2022-12-10T13:05:27;55.20;;;28.63;;
5819;SDS011;2936;47.348;9.640;2022-12-10T13:10:52;61.85;;;30.52;;
5819;SDS011;2936;47.348;9.640;2022-12-10T13:13:25;64.82;;;32.88;;
5819;SDS011;2936;47.348;9.640;2022-12-10T13:15:55;56.78;;;30.38;;
5819;SDS011;2936;47.348;9.640;2022-12-10T13:18:33;65.25;;;31.73;;
5819;SDS011;2936;47.348;9.640;2022-12-10T13:21:24;53.03;;;30.02;;
5819;SDS011;2936;47.348;9.640;2022-12-10T13:23:53;60.08;;;30.90;;
5819;SDS011;2936;47.348;9.640;2022-12-10T13:26:25;59.00;;;30.65;;
5819;SDS011;2936;47.348;9.640;2022-12-10T13:28:54;58.97;;;30.25;;
5819;SDS011;2936;47.348;9.640;2022-12-10T13:31:35;65.57;;;31.00;;
5819;SDS011;2936;47.348;9.640;2022-12-10T13:34:14;66.25;;;30.70;;
5819;SDS011;2936;47.348;9.640;2022-12-10T13:39:32;54.58;;;29.05;;
5819;SDS011;2936;47.348;9.640;2022-12-10T13:45:16;63.75;;;31.35;;
5819;SDS011;2936;47.348;9.640;2022-12-10T13:47:51;54.20;;;29.75;;
5819;SDS011;2936;47.348;9.640;2022-12-10T13:50:19;68.45;;;31.02;;
5819;SDS011;2936;47.348;9.640;2022-12-10T13:52:49;62.55;;;31.52;;
5819;SDS011;2936;47.348;9.640;2022-12-10T13:55:22;60.33;;;32.22;;
5819;SDS011;2936;47.348;9.640;2022-12-10T14:00:45;62.90;;;31.17;;
5819;SDS011;2936;47.348;9.640;2022-12-10T14:08:57;70.70;;;34.58;;
5819;SDS011;2936;47.348;9.640;2022-12-10T14:11:26;66.75;;;32.42;;
5819;SDS011;2936;47.348;9.640;2022-12-10T14:13:56;62.88;;;32.72;;
5819;SDS011;2936;47.348;9.640;2022-12-10T14:16:26;49.92;;;28.33;;
5819;SDS011;2936;47.348;9.640;2022-12-10T14:18:55;51.22;;;28.77;;
5819;SDS011;2936;47.348;9.640;2022-12-10T14:21:24;51.00;;;27.33;;
5819;SDS011;2936;47.348;9.640;2022-12-10T14:23:52;43.47;;;25.40;;
5819;SDS011;2936;47.348;9.640;2022-12-10T14:26:20;50.42;;;26.58;;
5819;SDS011;2936;47.348;9.640;2022-12-10T14:28:48;47.78;;;27.50;;
5819;SDS011;2936;47.348;9.640;2022-12-10T14:31:17;56.78;;;29.05;;
5819;SDS011;2936;47.348;9.640;2022-12-10T14:33:48;49.35;;;28.60;;
5819;SDS011;2936;47.348;9.640;2022-12-10T14:36:17;55.10;;;28.10;;
5819;SDS011;2936;47.348;9.640;2022-12-10T14:38:47;54.33;;;30.15;;
5819;SDS011;2936;47.348;9.640;2022-12-10T14:41:15;51.90;;;28.90;;
5819;SDS011;2936;47.348;9.640;2022-12-10T14:43:44;53.85;;;26.83;;
5819;SDS011;2936;47.348;9.640;2022-12-10T14:46:12;51.53;;;28.70;;
5819;SDS011;2936;47.348;9.640;2022-12-10T14:48:41;55.00;;;28.85;;
5819;SDS011;2936;47.348;9.640;2022-12-10T14:51:13;54.95;;;29.20;;
5819;SDS011;2936;47.348;9.640;2022-12-10T14:53:41;47.72;;;26.20;;
5819;SDS011;2936;47.348;9.640;2022-12-10T14:56:10;45.50;;;25.63;;
5819;SDS011;2936;47.348;9.640;2022-12-10T14:58:40;46.90;;;25.17;;
5819;SDS011;2936;47.348;9.640;2022-12-10T15:01:11;45.47;;;25.92;;
5819;SDS011;2936;47.348;9.640;2022-12-10T15:03:43;44.97;;;24.10;;
5819;SDS011;2936;47.348;9.640;2022-12-10T15:06:14;48.90;;;26.17;;
5819;SDS011;2936;47.348;9.640;2022-12-10T15:08:43;48.45;;;26.02;;
5819;SDS011;2936;47.348;9.640;2022-12-10T15:11:14;48.97;;;26.15;;
5819;SDS011;2936;47.348;9.640;2022-12-10T15:13:43;46.13;;;23.48;;
5819;SDS011;2936;47.348;9.640;2022-12-10T15:16:16;40.80;;;22.77;;
5819;SDS011;2936;47.348;9.640;2022-12-10T15:18:44;37.03;;;19.77;;
5819;SDS011;2936;47.348;9.640;2022-12-10T15:21:12;43.85;;;22.70;;
5819;SDS011;2936;47.348;9.640;2022-12-10T15:23:44;36.28;;;20.35;;
5819;SDS011;2936;47.348;9.640;2022-12-10T15:26:14;41.40;;;22.27;;
5819;SDS011;2936;47.348;9.640;2022-12-10T15:28:44;32.70;;;19.30;;